Time;durP1;ratioP1;P1;durP2;ratioP2;P2;SDS_P1;SDS_P2;PMS_P1;PMS_P2;Temp;Humidity;BMP_temperature;BMP_pressure;BME280_temperature;BME280_humidity;BME280_pressure;Samples;Min_cycle;Max_cycle;Signal;HPM_P1;HPM_P2
2021/06/07 00:01:39;;;;;;;4.00;3.67;;;17.10;99.90;;;;;;5053313;28;20250;-42
2021/06/07 00:04:08;;;;;;;5.28;3.40;;;17.10;99.90;;;;;;5052979;28;20228;-40
2021/06/07 00:06:37;;;;;;;3.75;3.45;;;17.10;99.90;;;;;;5052910;28;20239;-40
2021/06/07 00:09:07;;;;;;;3.45;3.22;;;17.00;99.90;;;;;;5053072;28;20211;-40
2021/06/07 00:11:36;;;;;;;4.00;3.70;;;17.00;99.90;;;;;;5052934;28;20758;-40
2021/06/07 00:14:04;;;;;;;3.60;3.30;;;17.00;99.90;;;;;;5053199;28;20619;-39
2021/06/07 00:16:33;;;;;;;3.80;3.50;;;17.10;99.90;;;;;;5053008;28;20570;-40
2021/06/07 00:19:01;;;;;;;3.70;3.40;;;17.00;99.90;;;;;;5053823;28;20218;-41
2021/06/07 00:21:30;;;;;;;4.00;3.70;;;17.10;99.90;;;;;;5053121;28;20243;-41
2021/06/07 00:24:00;;;;;;;4.05;3.53;;;17.00;99.90;;;;;;5052706;28;20318;-41
2021/06/07 00:26:28;;;;;;;3.97;3.58;;;17.10;99.90;;;;;;5052727;28;20204;-40
2021/06/07 00:28:56;;;;;;;4.32;3.63;;;17.10;99.90;;;;;;5052892;28;20232;-40
2021/06/07 00:31:24;;;;;;;4.25;3.50;;;17.10;99.90;;;;;;5054017;28;20204;-40
2021/06/07 00:33:52;;;;;;;3.65;3.13;;;17.00;99.90;;;;;;5053288;28;20215;-40
2021/06/07 00:36:21;;;;;;;3.53;3.33;;;17.00;99.90;;;;;;5053184;28;20552;-40
2021/06/07 00:38:49;;;;;;;3.58;3.38;;;17.00;99.90;;;;;;5053096;28;20219;-41
2021/06/07 00:41:19;;;;;;;3.60;3.30;;;17.10;99.90;;;;;;5052442;28;20294;-41
2021/06/07 00:43:51;;;;;;;4.18;3.80;;;17.10;99.90;;;;;;5052704;28;20308;-41
2021/06/07 00:46:18;;;;;;;3.67;3.42;;;17.10;99.90;;;;;;5052614;28;20218;-40
2021/06/07 00:48:46;;;;;;;3.30;3.00;;;17.10;99.90;;;;;;5052211;28;20247;-40
2021/06/07 00:51:13;;;;;;;3.25;2.95;;;17.10;99.90;;;;;;5052656;28;20207;-40
2021/06/07 00:53:41;;;;;;;3.00;2.80;;;17.10;99.90;;;;;;5052555;28;20295;-40
2021/06/07 00:56:11;;;;;;;3.20;3.00;;;17.10;99.90;;;;;;5052260;28;20717;-40
2021/06/07 00:58:41;;;;;;;2.92;2.72;;;17.10;99.90;;;;;;5052267;28;20208;-41
2021/06/07 01:01:11;;;;;;;5.25;3.33;;;17.10;99.90;;;;;;5052286;28;20298;-40
2021/06/07 01:03:40;;;;;;;4.28;3.88;;;17.10;99.90;;;;;;5052398;28;20322;-41
2021/06/07 01:06:08;;;;;;;4.30;3.90;;;17.10;99.90;;;;;;5051975;28;20266;-40
2021/06/07 01:08:36;;;;;;;5.63;4.32;;;17.00;99.90;;;;;;5052058;28;20335;-41
2021/06/07 01:11:05;;;;;;;4.40;3.95;;;17.00;99.90;;;;;;5052077;28;20635;-41
2021/06/07 01:13:35;;;;;;;3.70;3.40;;;17.00;99.90;;;;;;5052292;28;20242;-40
2021/06/07 01:16:05;;;;;;;4.22;3.85;;;17.00;99.90;;;;;;5052129;28;20617;-41
2021/06/07 01:18:33;;;;;;;4.85;4.20;;;16.90;99.90;;;;;;5052259;28;20646;-41
2021/06/07 01:21:05;;;;;;;4.63;4.10;;;16.90;99.90;;;;;;5052155;28;20216;-41
2021/06/07 01:23:34;;;;;;;4.85;4.45;;;16.90;99.90;;;;;;5052140;28;20633;-39
2021/06/07 01:26:03;;;;;;;5.13;4.63;;;16.80;99.90;;;;;;5052007;28;20231;-40
2021/06/07 01:28:31;;;;;;;5.30;4.90;;;16.90;99.90;;;;;;5052301;28;20247;-39
2021/06/07 01:31:00;;;;;;;5.20;4.72;;;16.80;99.90;;;;;;5051912;28;20203;-40
2021/06/07 01:33:28;;;;;;;6.35;5.30;;;16.80;99.90;;;;;;5052027;28;20604;-40
2021/06/07 01:35:57;;;;;;;5.38;4.88;;;16.90;99.90;;;;;;5051970;28;20251;-40
2021/06/07 01:38:25;;;;;;;6.65;5.97;;;16.90;99.90;;;;;;5051913;28;20299;-39
2021/06/07 01:40:56;;;;;;;6.68;6.07;;;16.90;99.90;;;;;;5052098;28;20207;-39
2021/06/07 01:43:25;;;;;;;7.10;6.50;;;16.80;99.90;;;;;;5051916;28;20299;-40
2021/06/07 01:45:53;;;;;;;7.18;6.45;;;16.90;99.90;;;;;;5051827;28;20232;-38
2021/06/07 01:48:22;;;;;;;8.50;7.70;;;16.80;99.90;;;;;;5051983;28;20590;-40
2021/06/07 01:50:52;;;;;;;9.35;8.45;;;16.80;99.90;;;;;;5051652;28;20223;-39
2021/06/07 01:53:24;;;;;;;10.63;9.52;;;16.90;99.90;;;;;;5052019;28;20629;-41
2021/06/07 01:55:56;;;;;;;12.48;11.18;;;16.90;99.90;;;;;;5052041;28;20218;-39
2021/06/07 01:58:24;;;;;;;10.85;9.88;;;16.90;99.90;;;;;;5051620;28;20218;-40
2021/06/07 02:00:55;;;;;;;11.40;10.02;;;16.90;99.90;;;;;;5052728;28;20219;-41
2021/06/07 02:03:23;;;;;;;14.50;12.15;;;16.90;99.90;;;;;;5056102;28;20227;-40
2021/06/07 02:05:54;;;;;;;14.75;13.18;;;16.90;99.90;;;;;;5055586;28;20714;-40
2021/06/07 02:08:21;;;;;;;15.18;13.65;;;16.90;99.90;;;;;;5055936;28;20215;-39
2021/06/07 02:10:52;;;;;;;18.05;15.32;;;16.90;99.90;;;;;;5055644;28;20254;-40
2021/06/07 02:13:22;;;;;;;18.45;15.57;;;17.00;99.90;;;;;;5055698;28;20295;-39
2021/06/07 02:15:53;;;;;;;20.08;17.73;;;17.00;99.90;;;;;;5055471;28;20681;-40
2021/06/07 02:18:21;;;;;;;17.40;15.55;;;16.90;99.90;;;;;;5055645;28;20452;-38
2021/06/07 02:20:48;;;;;;;19.58;17.50;;;17.00;99.90;;;;;;5055385;28;20226;-41
2021/06/07 02:23:16;;;;;;;21.58;18.55;;;16.90;99.90;;;;;;5055599;28;20214;-38
2021/06/07 02:25:44;;;;;;;21.77;19.50;;;17.00;99.90;;;;;;5055444;28;20228;-39
2021/06/07 02:28:12;;;;;;;19.42;17.27;;;17.00;99.90;;;;;;5055278;28;20211;-39
2021/06/07 02:30:42;;;;;;;16.65;13.40;;;17.00;99.90;;;;;;5055520;28;20211;-39
2021/06/07 02:33:09;;;;;;;19.38;17.42;;;17.00;99.90;;;;;;5055356;28;20204;-40
2021/06/07 02:35:37;;;;;;;12.20;10.98;;;17.00;99.90;;;;;;5055426;28;20239;-40
2021/06/07 02:38:05;;;;;;;13.35;12.05;;;17.00;99.90;;;;;;5055364;28;20303;-40
2021/06/07 02:40:36;;;;;;;11.77;10.68;;;17.00;99.90;;;;;;5055200;28;20570;-40
2021/06/07 02:43:05;;;;;;;14.52;13.15;;;17.00;99.90;;;;;;5055601;28;20608;-38
2021/06/07 02:45:33;;;;;;;13.43;12.02;;;17.00;99.90;;;;;;5054957;28;20664;-39
2021/06/07 02:48:04;;;;;;;13.65;12.23;;;17.00;99.90;;;;;;5054897;28;20548;-40
2021/06/07 02:50:34;;;;;;;13.48;12.18;;;17.00;99.90;;;;;;5055071;28;20216;-38
2021/06/07 02:53:03;;;;;;;13.10;11.80;;;17.00;99.90;;;;;;5055258;28;20214;-38
2021/06/07 02:55:33;;;;;;;14.52;13.13;;;17.00;99.90;;;;;;5055254;28;20210;-38
2021/06/07 02:58:01;;;;;;;14.07;12.77;;;17.00;99.90;;;;;;5055033;28;20216;-39
2021/06/07 03:00:32;;;;;;;15.63;14.23;;;17.00;99.90;;;;;;5056259;28;20208;-41
2021/06/07 03:03:03;;;;;;;16.65;14.95;;;17.00;99.90;;;;;;5056575;28;20208;-40
2021/06/07 03:05:32;;;;;;;15.20;13.68;;;16.90;99.90;;;;;;5054643;28;20330;-41
2021/06/07 03:08:00;;;;;;;17.75;16.00;;;17.00;99.90;;;;;;5055023;28;20220;-40
2021/06/07 03:10:28;;;;;;;18.58;16.80;;;17.00;99.90;;;;;;5054758;28;20204;-40
2021/06/07 03:12:55;;;;;;;19.63;17.63;;;17.00;99.90;;;;;;5054449;28;20215;-41
2021/06/07 03:15:24;;;;;;;20.92;18.85;;;17.00;99.90;;;;;;5054653;28;20633;-41
2021/06/07 03:17:53;;;;;;;20.77;18.50;;;16.90;99.90;;;;;;5054688;28;20204;-42
2021/06/07 03:20:25;;;;;;;23.17;20.88;;;17.00;99.90;;;;;;5054410;28;20298;-41
2021/06/07 03:22:53;;;;;;;24.98;21.13;;;17.00;99.90;;;;;;5054761;28;20352;-41
2021/06/07 03:25:20;;;;;;;23.50;20.98;;;17.00;99.90;;;;;;5054382;28;20695;-41
2021/06/07 03:27:48;;;;;;;22.35;20.13;;;17.00;99.90;;;;;;5054360;28;20210;-41
2021/06/07 03:30:17;;;;;;;19.95;17.92;;;17.00;99.90;;;;;;5054370;28;20214;-41
2021/06/07 03:32:44;;;;;;;15.40;13.93;;;17.00;99.90;;;;;;5054276;28;20302;-41
2021/06/07 03:35:15;;;;;;;12.05;10.95;;;17.00;99.90;;;;;;5054607;28;20208;-42
2021/06/07 03:37:44;;;;;;;11.13;10.05;;;17.00;99.90;;;;;;5054188;28;20304;-44
2021/06/07 03:40:14;;;;;;;11.10;10.05;;;17.00;99.90;;;;;;5054301;28;20216;-42
2021/06/07 03:42:42;;;;;;;12.82;11.65;;;17.00;99.90;;;;;;5054160;28;20208;-41
2021/06/07 03:45:11;;;;;;;11.75;10.63;;;17.00;99.90;;;;;;5054603;28;20224;-41
2021/06/07 03:47:38;;;;;;;10.45;9.55;;;17.00;99.90;;;;;;5054667;28;20216;-41
2021/06/07 03:50:08;;;;;;;10.35;9.40;;;17.00;99.90;;;;;;5053883;28;20544;-41
2021/06/07 03:52:36;;;;;;;10.70;9.60;;;17.00;99.90;;;;;;5053836;28;20624;-41
2021/06/07 03:55:07;;;;;;;11.50;10.30;;;17.00;99.90;;;;;;5054041;28;20210;-41
2021/06/07 03:57:35;;;;;;;12.55;11.30;;;17.00;99.90;;;;;;5053745;28;20348;-41
2021/06/07 04:00:04;;;;;;;16.83;14.98;;;17.00;99.90;;;;;;5053592;28;20302;-41
2021/06/07 04:02:31;;;;;;;16.83;13.25;;;17.00;99.90;;;;;;5053408;28;20303;-42
2021/06/07 04:04:59;;;;;;;18.33;15.55;;;17.00;99.90;;;;;;5052707;28;20310;-41
2021/06/07 04:07:26;;;;;;;15.10;13.57;;;17.00;99.90;;;;;;5053004;28;20298;-42
2021/06/07 04:09:53;;;;;;;14.18;12.77;;;17.00;99.90;;;;;;5053401;28;20203;-41
2021/06/07 04:12:22;;;;;;;14.55;12.73;;;17.00;99.90;;;;;;5053227;28;20214;-40
2021/06/07 04:14:50;;;;;;;15.55;13.90;;;17.00;99.90;;;;;;5053425;28;20207;-41
2021/06/07 04:17:18;;;;;;;14.93;13.40;;;17.00;99.90;;;;;;5053162;28;20287;-41
2021/06/07 04:19:45;;;;;;;16.52;14.30;;;17.00;99.90;;;;;;5052965;28;20299;-42
2021/06/07 04:22:13;;;;;;;17.77;15.88;;;17.00;99.90;;;;;;5052790;28;20321;-41
2021/06/07 04:24:42;;;;;;;20.35;18.33;;;17.00;99.90;;;;;;5052050;28;20346;-44
2021/06/07 04:27:10;;;;;;;17.60;15.75;;;17.00;99.90;;;;;;5053123;28;20597;-41
2021/06/07 04:29:38;;;;;;;18.52;16.58;;;17.00;99.90;;;;;;5053397;28;20306;-41
2021/06/07 04:32:07;;;;;;;18.67;15.50;;;17.10;99.90;;;;;;5053331;28;20657;-41
2021/06/07 04:34:35;;;;;;;20.55;17.55;;;17.10;99.90;;;;;;5053095;28;20294;-43
2021/06/07 04:37:03;;;;;;;19.85;17.75;;;17.00;99.90;;;;;;5053029;28;20208;-42
2021/06/07 04:39:30;;;;;;;22.60;17.63;;;17.00;99.90;;;;;;5053032;28;20451;-42
2021/06/07 04:41:58;;;;;;;22.13;17.95;;;17.00;99.90;;;;;;5052871;28;20299;-44
2021/06/07 04:44:25;;;;;;;22.15;19.75;;;17.00;99.90;;;;;;5052998;28;20769;-42
2021/06/07 04:46:54;;;;;;;20.90;17.45;;;17.00;99.90;;;;;;5052899;28;20250;-42
2021/06/07 04:49:21;;;;;;;19.83;17.48;;;17.00;99.90;;;;;;5052830;28;20479;-43
2021/06/07 04:51:49;;;;;;;19.27;17.17;;;17.00;99.90;;;;;;5053007;28;20303;-41
2021/06/07 04:54:17;;;;;;;21.88;19.38;;;17.00;99.90;;;;;;5052740;28;20231;-42
2021/06/07 04:56:44;;;;;;;20.95;17.58;;;17.10;99.90;;;;;;5053030;28;20204;-41
2021/06/07 04:59:11;;;;;;;25.70;23.10;;;17.10;99.90;;;;;;5052778;28;20291;-44
2021/06/07 05:01:39;;;;;;;23.05;20.65;;;17.20;99.90;;;;;;5052615;28;20212;-42
2021/06/07 05:04:08;;;;;;;22.17;19.10;;;17.30;99.90;;;;;;5052586;28;20208;-42
2021/06/07 05:06:35;;;;;;;21.33;19.02;;;17.40;99.90;;;;;;5052556;28;20331;-41
2021/06/07 05:09:03;;;;;;;23.13;19.88;;;17.40;99.90;;;;;;5052667;28;20243;-42
2021/06/07 05:11:30;;;;;;;23.02;20.30;;;17.40;99.90;;;;;;5052459;28;20248;-44
2021/06/07 05:13:58;;;;;;;22.55;19.55;;;17.50;99.90;;;;;;5052718;28;20234;-41
2021/06/07 05:16:26;;;;;;;21.30;17.27;;;17.50;99.90;;;;;;5052247;28;20307;-42
2021/06/07 05:18:53;;;;;;;22.02;19.15;;;17.50;99.90;;;;;;5052222;28;20262;-41
2021/06/07 05:21:22;;;;;;;19.70;17.58;;;17.50;99.90;;;;;;5051526;28;20299;-42
2021/06/07 05:23:50;;;;;;;23.77;15.98;;;17.50;99.90;;;;;;5052170;28;20214;-41
2021/06/07 05:26:17;;;;;;;20.00;17.40;;;17.60;99.90;;;;;;5051900;28;20228;-41
2021/06/07 05:28:45;;;;;;;27.63;18.65;;;17.60;99.90;;;;;;5051783;28;20285;-42
2021/06/07 05:31:12;;;;;;;18.65;16.58;;;17.60;99.90;;;;;;5051646;28;20246;-42
2021/06/07 05:33:39;;;;;;;20.33;16.60;;;17.60;99.90;;;;;;5051417;28;20291;-42
2021/06/07 05:36:07;;;;;;;23.02;20.92;;;17.70;99.90;;;;;;5051668;28;20619;-43
2021/06/07 05:38:36;;;;;;;18.88;16.38;;;17.70;99.90;;;;;;5051647;28;20204;-41
2021/06/07 05:41:04;;;;;;;19.20;16.38;;;17.80;99.90;;;;;;5051638;28;20218;-42
2021/06/07 05:43:31;;;;;;;19.63;16.73;;;17.90;99.90;;;;;;5051531;28;20743;-43
2021/06/07 05:45:59;;;;;;;19.05;16.50;;;17.90;99.90;;;;;;5051102;28;20228;-42
2021/06/07 05:48:27;;;;;;;22.55;17.13;;;18.00;99.90;;;;;;5051740;28;20208;-44
2021/06/07 05:50:54;;;;;;;21.95;18.60;;;18.00;99.90;;;;;;5051226;28;20266;-42
2021/06/07 05:53:21;;;;;;;17.08;15.15;;;18.00;99.90;;;;;;5051460;28;20322;-42
2021/06/07 05:55:50;;;;;;;16.33;14.52;;;18.10;99.90;;;;;;5051469;28;20206;-42
2021/06/07 05:58:20;;;;;;;17.27;15.38;;;18.10;99.90;;;;;;5051440;28;20295;-42
2021/06/07 06:00:49;;;;;;;16.88;14.27;;;18.00;99.90;;;;;;5051329;28;20243;-41
2021/06/07 06:03:18;;;;;;;16.98;14.52;;;18.00;99.90;;;;;;5051470;28;20212;-41
2021/06/07 06:05:46;;;;;;;22.90;16.38;;;18.00;99.90;;;;;;5050880;28;20334;-46
2021/06/07 06:08:13;;;;;;;18.90;14.95;;;18.10;99.90;;;;;;5051571;28;20222;-43
2021/06/07 06:10:42;;;;;;;18.38;15.02;;;18.10;99.90;;;;;;5051638;28;20663;-42
2021/06/07 06:13:31;;;;;;;19.92;15.60;;;18.30;99.90;;;;;;5051585;28;20215;-43
2021/06/07 06:15:58;;;;;;;21.42;16.95;;;18.50;99.90;;;;;;5051624;28;20204;-44
2021/06/07 06:18:26;;;;;;;19.48;15.65;;;18.60;99.90;;;;;;5051638;28;20212;-44
2021/06/07 06:20:53;;;;;;;18.13;15.02;;;18.70;99.90;;;;;;5051651;28;20283;-41
2021/06/07 06:23:21;;;;;;;15.98;13.55;;;18.80;99.90;;;;;;5051538;28;20768;-41
2021/06/07 06:25:49;;;;;;;14.18;11.82;;;19.00;99.90;;;;;;5051438;28;20254;-41
2021/06/07 06:28:16;;;;;;;16.33;13.45;;;19.20;99.90;;;;;;5051456;28;20208;-40
2021/06/07 06:30:45;;;;;;;16.52;13.48;;;19.40;99.90;;;;;;5051595;28;20212;-41
2021/06/07 06:33:12;;;;;;;17.00;13.93;;;19.50;99.90;;;;;;5051402;28;20250;-45
2021/06/07 06:35:40;;;;;;;15.48;12.13;;;19.60;99.90;;;;;;5051782;28;20294;-38
2021/06/07 06:38:07;;;;;;;17.80;12.70;;;19.70;99.90;;;;;;5051099;28;20219;-41
2021/06/07 06:40:38;;;;;;;16.45;11.35;;;19.70;99.90;;;;;;5051545;28;20204;-41
2021/06/07 06:43:06;;;;;;;12.73;10.57;;;19.80;99.90;;;;;;5051276;28;20218;-41
2021/06/07 06:45:35;;;;;;;11.95;10.43;;;19.90;99.90;;;;;;5051330;28;20255;-41
2021/06/07 06:48:06;;;;;;;11.52;9.40;;;20.00;99.90;;;;;;5053838;28;20332;-41
2021/06/07 06:50:36;;;;;;;10.70;9.30;;;20.10;99.90;;;;;;5054848;28;20252;-44
2021/06/07 06:53:05;;;;;;;10.85;8.68;;;20.10;99.90;;;;;;5055046;28;20251;-43
2021/06/07 06:55:33;;;;;;;10.20;8.30;;;20.00;99.90;;;;;;5055106;28;20234;-49
2021/06/07 06:58:02;;;;;;;7.85;7.05;;;20.00;99.90;;;;;;5054778;28;20262;-43
2021/06/07 07:00:35;;;;;;;7.95;7.03;;;19.90;99.90;;;;;;5054685;28;20745;-45
2021/06/07 07:03:05;;;;;;;10.10;7.95;;;19.80;99.90;;;;;;5054683;28;20298;-45
2021/06/07 07:05:33;;;;;;;9.85;8.35;;;19.60;99.90;;;;;;5054798;28;20244;-42
2021/06/07 07:08:01;;;;;;;9.95;8.50;;;19.50;99.90;;;;;;5054483;28;20227;-41
2021/06/07 07:10:29;;;;;;;7.20;6.50;;;19.30;99.90;;;;;;5054714;28;20294;-41
2021/06/07 07:12:56;;;;;;;7.55;6.05;;;19.30;99.90;;;;;;5054680;28;20208;-41
2021/06/07 07:15:24;;;;;;;7.95;6.85;;;19.30;99.90;;;;;;5054615;28;20212;-41
2021/06/07 07:17:52;;;;;;;6.93;5.80;;;19.40;99.90;;;;;;5054430;28;20694;-42
2021/06/07 07:20:21;;;;;;;7.43;5.68;;;19.60;99.90;;;;;;5054555;28;20215;-41
2021/06/07 07:22:49;;;;;;;8.70;5.72;;;19.70;99.90;;;;;;5054450;28;20299;-41
2021/06/07 07:25:17;;;;;;;7.10;6.43;;;19.80;99.90;;;;;;5054289;28;20571;-44
2021/06/07 07:27:44;;;;;;;7.70;6.43;;;20.00;99.90;;;;;;5053957;28;20227;-40
2021/06/07 07:30:15;;;;;;;7.38;6.35;;;20.20;99.90;;;;;;5054063;28;20223;-40
2021/06/07 07:32:44;;;;;;;7.95;5.40;;;20.40;99.90;;;;;;5054215;28;20302;-41
2021/06/07 07:35:12;;;;;;;5.07;4.35;;;20.40;99.90;;;;;;5054031;28;20298;-44
2021/06/07 07:37:42;;;;;;;5.75;5.25;;;20.50;99.90;;;;;;5052897;28;20434;-47
2021/06/07 07:40:12;;;;;;;4.43;4.13;;;20.90;99.90;;;;;;5054011;28;20212;-49
2021/06/07 07:42:40;;;;;;;4.88;4.38;;;21.00;99.90;;;;;;5053605;28;20243;-44
2021/06/07 07:45:10;;;;;;;6.00;5.40;;;21.20;99.90;;;;;;5053868;28;20789;-49
2021/06/07 07:47:39;;;;;;;4.72;4.30;;;21.30;99.90;;;;;;5053538;28;20263;-46
2021/06/07 07:50:09;;;;;;;5.03;4.63;;;21.30;99.90;;;;;;5053657;28;20250;-45
2021/06/07 07:52:41;;;;;;;6.22;4.55;;;21.20;99.90;;;;;;5053657;28;20258;-45
2021/06/07 07:55:12;;;;;;;6.50;4.90;;;21.20;99.90;;;;;;5053444;28;20295;-45
2021/06/07 07:57:41;;;;;;;5.57;5.03;;;21.20;99.90;;;;;;5053360;28;20204;-50
2021/06/07 08:00:11;;;;;;;5.55;5.05;;;21.30;99.90;;;;;;5052751;28;20302;-48
2021/06/07 08:02:39;;;;;;;5.53;5.03;;;21.30;99.90;;;;;;5053308;28;20243;-44
2021/06/07 08:05:08;;;;;;;6.03;5.50;;;21.30;99.90;;;;;;5053358;28;21027;-46
2021/06/07 08:07:37;;;;;;;5.85;5.28;;;21.30;99.90;;;;;;5052309;28;20526;-44
2021/06/07 08:10:06;;;;;;;5.80;5.30;;;21.50;99.90;;;;;;5053154;28;20303;-46
2021/06/07 08:12:35;;;;;;;5.53;5.03;;;21.40;99.90;;;;;;5052636;28;20467;-48
2021/06/07 08:15:05;;;;;;;6.45;5.07;;;21.40;99.90;;;;;;5053456;28;20215;-41
2021/06/07 08:17:32;;;;;;;4.50;4.10;;;21.30;99.90;;;;;;5053500;28;20208;-46
2021/06/07 08:20:00;;;;;;;4.85;3.90;;;21.40;99.90;;;;;;5053144;28;20224;-47
2021/06/07 08:22:28;;;;;;;3.90;3.60;;;21.50;99.90;;;;;;5052977;28;20696;-49
2021/06/07 08:24:55;;;;;;;4.20;3.88;;;21.60;99.90;;;;;;5053203;28;20306;-46
2021/06/07 08:27:22;;;;;;;3.88;3.47;;;21.60;99.90;;;;;;5052956;28;20228;-49
2021/06/07 08:29:51;;;;;;;3.80;3.50;;;21.70;99.90;;;;;;5053075;28;20380;-48
2021/06/07 08:32:19;;;;;;;4.40;3.97;;;21.80;99.90;;;;;;5052679;28;20216;-49
2021/06/07 08:34:46;;;;;;;4.70;2.72;;;22.10;99.90;;;;;;5052858;28;20216;-46
2021/06/07 08:37:14;;;;;;;2.63;2.28;;;22.30;99.90;;;;;;5053110;28;20283;-46
2021/06/07 08:39:42;;;;;;;3.20;3.00;;;22.50;99.90;;;;;;5053036;28;20205;-49
2021/06/07 08:42:10;;;;;;;4.97;2.40;;;22.80;99.90;;;;;;5052706;28;20592;-46
2021/06/07 08:44:38;;;;;;;3.85;3.13;;;22.90;99.90;;;;;;5052752;28;20299;-46
2021/06/07 08:47:07;;;;;;;2.10;1.90;;;23.10;99.90;;;;;;5052567;28;20327;-46
2021/06/07 08:49:35;;;;;;;2.17;2.00;;;23.20;99.90;;;;;;5052830;28;20216;-43
2021/06/07 08:52:03;;;;;;;1.80;1.70;;;23.40;99.90;;;;;;5052844;28;20433;-44
2021/06/07 08:54:30;;;;;;;2.08;1.88;;;23.50;99.90;;;;;;5052782;28;20315;-42
2021/06/07 08:56:57;;;;;;;2.05;1.95;;;23.70;99.90;;;;;;5052514;28;20299;-42
2021/06/07 08:59:25;;;;;;;2.58;2.38;;;23.90;99.90;;;;;;5052653;28;20216;-42
2021/06/07 09:01:54;;;;;;;2.08;1.20;;;23.90;99.90;;;;;;5051657;28;20300;-45
2021/06/07 09:04:24;;;;;;;1.67;1.58;;;23.90;99.80;;;;;;5051132;28;20681;-44
2021/06/07 09:06:52;;;;;;;1.40;1.30;;;23.90;99.50;;;;;;5052135;28;20677;-46
2021/06/07 09:09:22;;;;;;;3.10;1.38;;;23.90;99.30;;;;;;5052309;28;20210;-44
2021/06/07 09:11:57;;;;;;;1.58;1.45;;;24.00;99.30;;;;;;5053131;28;20302;-43
2021/06/07 09:14:26;;;;;;;3.22;1.80;;;23.90;99.20;;;;;;5053039;28;20219;-47
2021/06/07 09:16:54;;;;;;;2.00;1.88;;;23.70;99.30;;;;;;5052817;28;20219;-44
2021/06/07 09:19:26;;;;;;;1.40;1.30;;;23.60;99.40;;;;;;5052286;28;20211;-45
2021/06/07 09:21:56;;;;;;;1.38;1.27;;;23.60;99.30;;;;;;5052171;28;20238;-43
2021/06/07 09:24:24;;;;;;;1.88;1.73;;;23.80;98.90;;;;;;5052405;28;20883;-43
2021/06/07 09:26:51;;;;;;;2.65;1.60;;;23.80;98.60;;;;;;5052249;28;20552;-44
2021/06/07 09:29:34;;;;;;;1.75;1.45;;;23.90;98.50;;;;;;5052345;28;20299;-42
2021/06/07 09:32:02;;;;;;;1.20;1.10;;;23.90;98.30;;;;;;5052197;28;20749;-43
2021/06/07 09:34:33;;;;;;;1.20;1.10;;;24.00;98.00;;;;;;5052182;28;20239;-43
2021/06/07 09:37:05;;;;;;;1.95;1.00;;;24.00;97.40;;;;;;5051694;28;20208;-49
2021/06/07 09:39:33;;;;;;;0.90;0.90;;;24.10;97.00;;;;;;5051857;28;20306;-47
2021/06/07 09:42:03;;;;;;;1.45;1.35;;;24.20;97.20;;;;;;5052326;28;20281;-43
2021/06/07 09:44:35;;;;;;;0.88;0.88;;;24.30;96.90;;;;;;5051867;28;20745;-46
2021/06/07 09:47:09;;;;;;;2.30;1.58;;;24.40;96.60;;;;;;5051549;28;20670;-46
2021/06/07 09:49:40;;;;;;;1.77;1.08;;;24.50;96.40;;;;;;5051709;28;20246;-44
2021/06/07 09:52:15;;;;;;;1.50;1.40;;;24.50;96.30;;;;;;5051738;28;20269;-46
2021/06/07 09:54:43;;;;;;;2.35;1.05;;;24.60;96.20;;;;;;5051957;28;20306;-46
2021/06/07 09:57:11;;;;;;;2.17;2.00;;;24.60;96.20;;;;;;5051508;28;20211;-44
2021/06/07 09:59:43;;;;;;;1.77;1.40;;;24.70;96.10;;;;;;5051579;28;20239;-45
2021/06/07 10:02:17;;;;;;;1.63;1.52;;;24.70;96.00;;;;;;5051883;28;20315;-46
2021/06/07 10:04:55;;;;;;;2.10;0.82;;;24.70;95.60;;;;;;5052198;28;20293;-48
2021/06/07 10:07:23;;;;;;;1.10;0.70;;;24.60;95.70;;;;;;5051332;28;20310;-46
2021/06/07 10:10:11;;;;;;;10.18;9.32;;;24.50;95.90;;;;;;5051445;28;20266;-45
2021/06/07 10:12:40;;;;;;;2.40;1.90;;;24.50;95.80;;;;;;5051222;28;20215;-47
2021/06/07 10:15:09;;;;;;;1.65;1.55;;;24.50;96.10;;;;;;5051327;28;20268;-46
2021/06/07 10:17:37;;;;;;;1.05;0.95;;;24.50;96.10;;;;;;5051195;28;20639;-45
2021/06/07 10:22:54;;;;;;;2.85;1.30;;;24.40;95.90;;;;;;5054214;28;20422;-45
2021/06/07 10:25:22;;;;;;;1.35;1.25;;;24.30;96.20;;;;;;5055720;28;20298;-46
2021/06/07 10:27:50;;;;;;;1.20;1.10;;;24.30;96.40;;;;;;5055686;28;20231;-45
2021/06/07 10:30:21;;;;;;;1.90;1.33;;;24.30;96.50;;;;;;5055229;28;20254;-47
2021/06/07 10:32:51;;;;;;;0.82;0.82;;;24.40;96.40;;;;;;5055167;28;20680;-46
2021/06/07 10:35:32;;;;;;;2.75;1.40;;;24.40;96.30;;;;;;5055290;28;20204;-49
2021/06/07 10:38:11;;;;;;;1.10;0.85;;;24.60;95.90;;;;;;5055214;28;20239;-47
2021/06/07 10:40:42;;;;;;;0.90;0.80;;;24.60;95.80;;;;;;5055610;28;20308;-47
2021/06/07 10:43:11;;;;;;;1.80;1.40;;;24.60;95.50;;;;;;5055279;28;20306;-46
2021/06/07 10:45:40;;;;;;;1.30;1.20;;;24.60;95.50;;;;;;5054794;28;20721;-45
2021/06/07 10:48:10;;;;;;;5.40;1.75;;;24.60;95.50;;;;;;5055609;28;20220;-49
2021/06/07 10:50:43;;;;;;;1.23;0.75;;;24.60;95.50;;;;;;5055474;28;20277;-47
2021/06/07 10:53:22;;;;;;;1.48;1.15;;;24.50;95.50;;;;;;5054783;28;20207;-46
2021/06/07 10:56:03;;;;;;;5.10;2.08;;;24.60;95.60;;;;;;5054271;28;20227;-45
2021/06/07 10:58:31;;;;;;;1.50;1.40;;;24.60;95.70;;;;;;5054713;28;20304;-44
2021/06/07 11:01:01;;;;;;;4.07;1.23;;;24.50;95.70;;;;;;5054776;28;20212;-49
2021/06/07 11:03:31;;;;;;;2.28;1.20;;;24.50;95.70;;;;;;5054567;28;20215;-45
2021/06/07 11:06:03;;;;;;;1.30;1.20;;;24.50;95.70;;;;;;5054630;28;20248;-45
2021/06/07 11:08:31;;;;;;;0.85;0.85;;;24.60;95.70;;;;;;5054409;28;20253;-44
2021/06/07 11:11:04;;;;;;;0.75;0.75;;;24.50;95.30;;;;;;5054180;28;20210;-43
2021/06/07 11:13:34;;;;;;;1.15;0.95;;;24.60;95.10;;;;;;5054375;28;20379;-45
2021/06/07 11:16:03;;;;;;;0.57;0.57;;;24.70;94.90;;;;;;5054978;28;20261;-47
2021/06/07 11:18:32;;;;;;;3.05;1.00;;;24.70;94.50;;;;;;5054537;28;20279;-45
2021/06/07 11:21:27;;;;;;;0.85;0.85;;;24.80;94.30;;;;;;5054293;28;20214;-47
2021/06/07 11:23:54;;;;;;;1.20;1.10;;;24.80;93.90;;;;;;5054072;28;20753;-46
2021/06/07 11:26:35;;;;;;;0.88;0.88;;;25.00;93.90;;;;;;5054228;28;20208;-45
2021/06/07 11:29:07;;;;;;;0.68;0.68;;;25.20;93.80;;;;;;5054177;28;20238;-46
2021/06/07 11:31:40;;;;;;;0.90;0.90;;;25.50;93.40;;;;;;5054027;28;20682;-45
2021/06/07 11:34:11;;;;;;;1.25;1.15;;;25.60;93.10;;;;;;5053785;28;20658;-45
2021/06/07 11:36:43;;;;;;;0.95;0.90;;;25.80;92.80;;;;;;5054010;28;20701;-46
2021/06/07 11:39:29;;;;;;;1.05;0.90;;;25.90;92.80;;;;;;5054139;28;20204;-44
2021/06/07 11:42:05;;;;;;;1.15;0.75;;;26.00;92.60;;;;;;5053848;28;20615;-45
2021/06/07 11:44:56;;;;;;;1.30;1.20;;;26.10;92.30;;;;;;5053635;28;20591;-47
2021/06/07 11:47:26;;;;;;;1.98;1.20;;;26.30;92.20;;;;;;5053946;28;20310;-44
2021/06/07 11:50:14;;;;;;;1.20;1.10;;;26.30;92.10;;;;;;5053968;28;20286;-44
2021/06/07 11:52:52;;;;;;;1.83;1.10;;;26.30;91.70;;;;;;5053591;28;20657;-44
2021/06/07 11:55:30;;;;;;;1.15;1.02;;;26.20;91.80;;;;;;5053437;28;20294;-46
2021/06/07 11:58:16;;;;;;;0.90;0.90;;;26.30;91.70;;;;;;5053801;28;20295;-44
2021/06/07 12:00:46;;;;;;;0.90;0.90;;;26.40;91.60;;;;;;5053516;28;20207;-48
2021/06/07 12:03:16;;;;;;;2.08;1.98;;;26.40;91.60;;;;;;5053472;28;20234;-44
2021/06/07 12:05:45;;;;;;;2.00;1.20;;;26.40;91.40;;;;;;5053099;28;20264;-50
2021/06/07 12:08:16;;;;;;;1.27;1.17;;;26.40;91.40;;;;;;5053810;28;20228;-47
2021/06/07 12:10:50;;;;;;;2.58;2.38;;;26.40;91.20;;;;;;5055674;28;20208;-48
2021/06/07 12:13:24;;;;;;;1.58;1.48;;;26.60;91.00;;;;;;5056859;28;20254;-44
2021/06/07 12:15:55;;;;;;;2.92;2.55;;;26.70;90.70;;;;;;5057090;28;20605;-50
2021/06/07 12:18:41;;;;;;;1.65;1.27;;;26.50;90.70;;;;;;5058678;28;20291;-50
2021/06/07 12:21:13;;;;;;;1.85;1.33;;;26.40;91.20;;;;;;5062761;28;20715;-46
2021/06/07 12:23:51;;;;;;;2.15;1.65;;;26.20;91.00;;;;;;5055742;28;20761;-46
2021/06/07 12:29:30;;;;;;;2.08;1.63;;;26.10;91.30;;;;;;5053238;28;20228;-47
2021/06/07 12:32:17;;;;;;;1.48;1.38;;;26.20;91.10;;;;;;5052986;28;20219;-47
2021/06/07 12:35:12;;;;;;;1.98;1.85;;;26.20;91.30;;;;;;5053116;28;20283;-47
2021/06/07 12:37:43;;;;;;;1.35;1.25;;;26.20;91.40;;;;;;5052853;28;20208;-46
2021/06/07 12:40:21;;;;;;;1.80;1.42;;;26.20;91.40;;;;;;5052665;28;20302;-48
2021/06/07 12:42:53;;;;;;;1.73;1.60;;;26.20;91.40;;;;;;5052866;28;20207;-52
2021/06/07 12:45:23;;;;;;;3.05;1.60;;;26.30;91.40;;;;;;5052276;28;20311;-45
2021/06/07 12:47:51;;;;;;;2.10;1.90;;;26.30;91.30;;;;;;5052633;28;20203;-47
2021/06/07 12:50:22;;;;;;;2.35;1.63;;;26.40;91.40;;;;;;5052561;28;20218;-47
2021/06/07 12:52:53;;;;;;;1.73;1.63;;;26.50;90.80;;;;;;5052603;28;20633;-43
2021/06/07 12:55:25;;;;;;;2.38;1.95;;;26.60;90.60;;;;;;5052529;28;20647;-49
2021/06/07 12:57:55;;;;;;;2.10;2.00;;;26.60;90.40;;;;;;5052589;28;20290;-44